aviador You're here:

KJRB Decoded Metar

in
Report Time2017-07-23 00:35:00
UTC Time2017-07-23 00:49:17
Flight Rules vfr VFR
WindVRB at 05 kt
Visibility9999 m
Phenomena:N/A
Clouds:Few 050 Hf
Scattered 070 Hf
Broken 095 Hf
Expected CloudBase > 2,000 ft AGL from Temp-Dew spread
Ceiling9,500 ft
Temp27°C
Dew Point22°C (74% RH)
Heat Index29.2°C
QNH1009 hPa
Raw Report
KJRB 230035Z VRB05KT 10SM FEW050 SCT070 BKN095 27/22 A2979 RMK AO2
SLP298 P0998 PWINO FZRANO RVRNO=

Extra information for KJRB:More info

Social comments